Carver, Oregon
Current Conditions -  °F | °C
As of 5:53 PM on Wednesday 17 Dec 2014 (Local Time) from KTTD Reporting Station
Light Rain Light Rain  
Wind Chill: 34°   Ceiling: 2500
Heat Index: 43°   Visibility: 9mi
Dew Point: 40°   Wind: 20mph
Humidity: 89%   Direction: 80°E
Pressure: 29.91"   Gusts: 26mph
Location:  45.4156°N, 122.523°W
Report Text: KTTD 180153Z 08017G23KT 9SM -RA OVC025 06/04 A2991 RMK AO2 RAB00 SLP130 P0002 T00610044
Loading
Personal Weather Stations






























Interactive Weather Map New forecast layout! Learn more

10-Day Weather Forecast

Advertisements
Track Severe Weather on mobile